sensor_id;sensor_type;location;lat;lon;timestamp;pressure;altitude;pressure_sealevel;temperature;humidity
18765;BME280;9511;54.242;12.448;2023-02-22T05:10:19;101555.25;;;0.28;100.00
18765;BME280;9511;54.242;12.448;2023-02-22T05:12:46;101556.56;;;0.22;100.00
18765;BME280;9511;54.242;12.448;2023-02-22T05:15:16;101552.94;;;0.20;100.00
18765;BME280;9511;54.242;12.448;2023-02-22T05:17:43;101555.31;;;0.17;100.00
18765;BME280;9511;54.242;12.448;2023-02-22T05:20:16;101556.09;;;0.16;100.00
18765;BME280;9511;54.242;12.448;2023-02-22T05:22:47;101546.25;;;0.12;100.00
18765;BME280;9511;54.242;12.448;2023-02-22T05:25:14;101535.34;;;0.06;100.00
18765;BME280;9511;54.242;12.448;2023-02-22T05:27:43;101541.88;;;0.01;100.00
18765;BME280;9511;54.242;12.448;2023-02-22T05:30:12;101537.47;;;0.00;100.00
18765;BME280;9511;54.242;12.448;2023-02-22T05:32:39;101535.41;;;-0.04;100.00
18765;BME280;9511;54.242;12.448;2023-02-22T05:35:06;101542.94;;;-0.07;100.00
18765;BME280;9511;54.242;12.448;2023-02-22T05:37:34;101541.66;;;-0.12;100.00
18765;BME280;9511;54.242;12.448;2023-02-22T05:40:02;101543.50;;;-0.11;100.00
18765;BME280;9511;54.242;12.448;2023-02-22T05:42:29;101542.41;;;-0.03;100.00
18765;BME280;9511;54.242;12.448;2023-02-22T05:44:59;101551.25;;;-0.01;100.00
18765;BME280;9511;54.242;12.448;2023-02-22T05:47:26;101549.91;;;0.04;100.00
18765;BME280;9511;54.242;12.448;2023-02-22T05:49:53;101553.84;;;-0.01;100.00
18765;BME280;9511;54.242;12.448;2023-02-22T05:52:21;101553.50;;;-0.06;100.00
18765;BME280;9511;54.242;12.448;2023-02-22T05:54:48;101555.16;;;-0.06;100.00
18765;BME280;9511;54.242;12.448;2023-02-22T05:57:16;101555.31;;;-0.05;100.00
18765;BME280;9511;54.242;12.448;2023-02-22T05:59:43;101556.31;;;-0.03;100.00
18765;BME280;9511;54.242;12.448;2023-02-22T06:02:12;101549.69;;;0.01;100.00
18765;BME280;9511;54.242;12.448;2023-02-22T06:04:39;101552.56;;;-0.06;100.00
18765;BME280;9511;54.242;12.448;2023-02-22T06:07:06;101547.97;;;-0.20;100.00
18765;BME280;9511;54.242;12.448;2023-02-22T06:09:33;101553.66;;;-0.14;100.00
18765;BME280;9511;54.242;12.448;2023-02-22T06:12:01;101541.56;;;-0.14;100.00
18765;BME280;9511;54.242;12.448;2023-02-22T06:14:28;101544.69;;;-0.18;100.00
18765;BME280;9511;54.242;12.448;2023-02-22T06:16:56;101561.56;;;-0.13;100.00
18765;BME280;9511;54.242;12.448;2023-02-22T06:19:26;101553.34;;;-0.07;100.00
18765;BME280;9511;54.242;12.448;2023-02-22T06:21:55;101555.94;;;-0.07;100.00
18765;BME280;9511;54.242;12.448;2023-02-22T06:24:22;101557.13;;;-0.04;100.00
18765;BME280;9511;54.242;12.448;2023-02-22T06:26:53;101562.69;;;0.01;100.00
18765;BME280;9511;54.242;12.448;2023-02-22T06:29:22;101561.63;;;-0.01;100.00
18765;BME280;9511;54.242;12.448;2023-02-22T06:31:49;101559.19;;;0.01;100.00
18765;BME280;9511;54.242;12.448;2023-02-22T06:34:17;101560.56;;;0.07;100.00
18765;BME280;9511;54.242;12.448;2023-02-22T06:36:46;101567.16;;;0.14;100.00
18765;BME280;9511;54.242;12.448;2023-02-22T06:39:14;101566.25;;;0.13;100.00
18765;BME280;9511;54.242;12.448;2023-02-22T06:41:42;101570.78;;;0.16;100.00
18765;BME280;9511;54.242;12.448;2023-02-22T06:44:10;101571.94;;;0.19;100.00
18765;BME280;9511;54.242;12.448;2023-02-22T06:46:38;101574.13;;;0.25;100.00
18765;BME280;9511;54.242;12.448;2023-02-22T06:49:05;101572.00;;;0.31;100.00
18765;BME280;9511;54.242;12.448;2023-02-22T06:51:35;101582.91;;;0.37;100.00
18765;BME280;9511;54.242;12.448;2023-02-22T06:54:04;101581.75;;;0.34;100.00
18765;BME280;9511;54.242;12.448;2023-02-22T06:56:32;101585.88;;;0.42;100.00
18765;BME280;9511;54.242;12.448;2023-02-22T06:58:59;101593.09;;;0.46;100.00
18765;BME280;9511;54.242;12.448;2023-02-22T07:01:27;101586.34;;;0.48;100.00
18765;BME280;9511;54.242;12.448;2023-02-22T07:03:54;101593.19;;;0.58;100.00
18765;BME280;9511;54.242;12.448;2023-02-22T07:06:22;101593.31;;;0.59;100.00
18765;BME280;9511;54.242;12.448;2023-02-22T07:08:49;101594.78;;;0.67;100.00
18765;BME280;9511;54.242;12.448;2023-02-22T07:11:18;101593.34;;;0.71;100.00
18765;BME280;9511;54.242;12.448;2023-02-22T07:13:45;101599.03;;;0.77;100.00
18765;BME280;9511;54.242;12.448;2023-02-22T07:16:12;101601.19;;;0.83;100.00
18765;BME280;9511;54.242;12.448;2023-02-22T07:18:40;101598.53;;;0.93;100.00
18765;BME280;9511;54.242;12.448;2023-02-22T07:21:07;101608.06;;;1.04;100.00
18765;BME280;9511;54.242;12.448;2023-02-22T07:23:34;101607.94;;;1.14;100.00
18765;BME280;9511;54.242;12.448;2023-02-22T07:26:03;101604.25;;;1.22;100.00
18765;BME280;9511;54.242;12.448;2023-02-22T07:28:32;101607.66;;;1.33;100.00
18765;BME280;9511;54.242;12.448;2023-02-22T07:30:59;101606.63;;;1.43;100.00
18765;BME280;9511;54.242;12.448;2023-02-22T07:33:27;101612.56;;;1.52;100.00
18765;BME280;9511;54.242;12.448;2023-02-22T07:35:54;101613.00;;;1.58;100.00
18765;BME280;9511;54.242;12.448;2023-02-22T07:38:21;101608.59;;;1.69;100.00
18765;BME280;9511;54.242;12.448;2023-02-22T07:40:49;101612.09;;;1.81;100.00
18765;BME280;9511;54.242;12.448;2023-02-22T07:43:17;101618.91;;;1.91;100.00
18765;BME280;9511;54.242;12.448;2023-02-22T07:45:48;101619.00;;;2.04;100.00
18765;BME280;9511;54.242;12.448;2023-02-22T07:48:17;101612.63;;;2.12;100.00
18765;BME280;9511;54.242;12.448;2023-02-22T07:50:44;101616.47;;;2.17;100.00
18765;BME280;9511;54.242;12.448;2023-02-22T07:53:13;101618.28;;;2.30;100.00
18765;BME280;9511;54.242;12.448;2023-02-22T07:55:41;101617.13;;;2.38;100.00
18765;BME280;9511;54.242;12.448;2023-02-22T07:58:12;101631.41;;;2.43;100.00
18765;BME280;9511;54.242;12.448;2023-02-22T08:00:42;101619.13;;;2.54;100.00
18765;BME280;9511;54.242;12.448;2023-02-22T08:03:12;101624.88;;;2.61;100.00
18765;BME280;9511;54.242;12.448;2023-02-22T08:05:43;101616.56;;;2.67;100.00
18765;BME280;9511;54.242;12.448;2023-02-22T08:08:11;101618.50;;;2.70;100.00
18765;BME280;9511;54.242;12.448;2023-02-22T08:10:39;101609.16;;;2.73;100.00
18765;BME280;9511;54.242;12.448;2023-02-22T08:13:07;101616.81;;;2.70;100.00
18765;BME280;9511;54.242;12.448;2023-02-22T08:15:36;101615.53;;;2.77;100.00
18765;BME280;9511;54.242;12.448;2023-02-22T08:18:05;101622.06;;;2.83;100.00
18765;BME280;9511;54.242;12.448;2023-02-22T08:20:36;101616.88;;;2.97;100.00
18765;BME280;9511;54.242;12.448;2023-02-22T08:23:04;101612.72;;;3.12;100.00
18765;BME280;9511;54.242;12.448;2023-02-22T08:25:31;101620.59;;;3.25;100.00
18765;BME280;9511;54.242;12.448;2023-02-22T08:28:00;101614.47;;;3.38;100.00
18765;BME280;9511;54.242;12.448;2023-02-22T08:30:29;101617.22;;;3.53;100.00
18765;BME280;9511;54.242;12.448;2023-02-22T08:32:57;101610.41;;;3.68;100.00
18765;BME280;9511;54.242;12.448;2023-02-22T08:35:25;101606.97;;;3.82;100.00
18765;BME280;9511;54.242;12.448;2023-02-22T08:37:56;101603.34;;;3.93;100.00
18765;BME280;9511;54.242;12.448;2023-02-22T08:40:26;101615.91;;;4.12;100.00
18765;BME280;9511;54.242;12.448;2023-02-22T08:42:54;101608.34;;;4.17;100.00
18765;BME280;9511;54.242;12.448;2023-02-22T08:45:21;101611.53;;;4.39;100.00
18765;BME280;9511;54.242;12.448;2023-02-22T08:47:49;101611.63;;;4.41;100.00
18765;BME280;9511;54.242;12.448;2023-02-22T08:50:20;101603.53;;;4.51;100.00
18765;BME280;9511;54.242;12.448;2023-02-22T08:52:48;101607.22;;;4.68;100.00
18765;BME280;9511;54.242;12.448;2023-02-22T08:55:19;101607.00;;;4.78;100.00
18765;BME280;9511;54.242;12.448;2023-02-22T08:57:47;101604.53;;;4.81;100.00
18765;BME280;9511;54.242;12.448;2023-02-22T09:00:16;101605.13;;;4.90;100.00
18765;BME280;9511;54.242;12.448;2023-02-22T09:02:44;101598.16;;;4.91;100.00
18765;BME280;9511;54.242;12.448;2023-02-22T09:05:12;101591.56;;;4.97;100.00
18765;BME280;9511;54.242;12.448;2023-02-22T09:07:43;101592.50;;;5.13;100.00
18765;BME280;9511;54.242;12.448;2023-02-22T09:10:12;101591.22;;;5.21;100.00
18765;BME280;9511;54.242;12.448;2023-02-22T09:12:42;101594.13;;;5.11;100.00
18765;BME280;9511;54.242;12.448;2023-02-22T09:15:10;101594.06;;;5.24;100.00
18765;BME280;9511;54.242;12.448;2023-02-22T09:17:38;101593.59;;;5.31;100.00
18765;BME280;9511;54.242;12.448;2023-02-22T09:20:07;101592.97;;;5.35;100.00
18765;BME280;9511;54.242;12.448;2023-02-22T09:22:35;101594.88;;;5.23;100.00
18765;BME280;9511;54.242;12.448;2023-02-22T09:25:02;101593.59;;;5.31;100.00
18765;BME280;9511;54.242;12.448;2023-02-22T09:27:29;101587.66;;;5.33;100.00
18765;BME280;9511;54.242;12.448;2023-02-22T09:29:58;101584.53;;;5.55;99.84
18765;BME280;9511;54.242;12.448;2023-02-22T09:32:25;101596.59;;;5.52;99.24
18765;BME280;9511;54.242;12.448;2023-02-22T09:34:54;101593.38;;;5.72;98.94
18765;BME280;9511;54.242;12.448;2023-02-22T11:59:37;101466.22;;;9.67;76.35
18765;BME280;9511;54.242;12.448;2023-02-22T12:02:25;101471.03;;;9.77;76.09
18765;BME280;9511;54.242;12.448;2023-02-22T12:05:13;101461.25;;;9.52;75.86
18765;BME280;9511;54.242;12.448;2023-02-22T12:07:51;101455.56;;;9.64;74.82
18765;BME280;9511;54.242;12.448;2023-02-22T12:10:28;101463.97;;;9.99;74.44
18765;BME280;9511;54.242;12.448;2023-02-22T12:13:13;101457.22;;;10.07;73.87
18765;BME280;9511;54.242;12.448;2023-02-22T12:15:50;101453.72;;;10.08;75.02
18765;BME280;9511;54.242;12.448;2023-02-22T12:18:28;101460.19;;;9.49;74.58
18765;BME280;9511;54.242;12.448;2023-02-22T12:20:59;101452.06;;;9.65;75.29
18765;BME280;9511;54.242;12.448;2023-02-22T12:23:34;101449.41;;;9.65;75.04
18765;BME280;9511;54.242;12.448;2023-02-22T12:26:08;101452.13;;;9.89;74.84
18765;BME280;9511;54.242;12.448;2023-02-22T12:28:40;101446.31;;;9.98;73.68
18765;BME280;9511;54.242;12.448;2023-02-22T12:31:19;101439.91;;;10.15;73.10
18765;BME280;9511;54.242;12.448;2023-02-22T12:33:53;101443.66;;;10.44;73.22
18765;BME280;9511;54.242;12.448;2023-02-22T12:36:31;101444.34;;;10.16;72.73
18765;BME280;9511;54.242;12.448;2023-02-22T12:39:04;101448.06;;;10.44;72.70
18765;BME280;9511;54.242;12.448;2023-02-22T12:41:41;101444.44;;;10.42;73.31
18765;BME280;9511;54.242;12.448;2023-02-22T12:44:15;101448.97;;;10.44;72.94
18765;BME280;9511;54.242;12.448;2023-02-22T12:46:48;101440.44;;;10.06;73.74
18765;BME280;9511;54.242;12.448;2023-02-22T12:49:22;101445.94;;;9.89;75.51
18765;BME280;9511;54.242;12.448;2023-02-22T12:51:59;101447.59;;;9.42;76.01
18765;BME280;9511;54.242;12.448;2023-02-22T12:54:38;101447.94;;;9.08;77.25
18765;BME280;9511;54.242;12.448;2023-02-22T12:57:13;101446.06;;;8.84;77.98
18765;BME280;9511;54.242;12.448;2023-02-22T12:59:46;101448.53;;;8.60;78.65
18765;BME280;9511;54.242;12.448;2023-02-22T13:02:20;101443.44;;;8.65;79.64
18765;BME280;9511;54.242;12.448;2023-02-22T13:04:48;101450.41;;;8.63;80.17
18765;BME280;9511;54.242;12.448;2023-02-22T13:07:25;101456.09;;;8.52;80.35
18765;BME280;9511;54.242;12.448;2023-02-22T13:10:17;101449.22;;;8.37;81.55
18765;BME280;9511;54.242;12.448;2023-02-22T13:12:50;101452.97;;;8.22;81.89
18765;BME280;9511;54.242;12.448;2023-02-22T13:15:27;101444.78;;;8.16;83.16
18765;BME280;9511;54.242;12.448;2023-02-22T13:18:03;101445.84;;;8.02;83.44
18765;BME280;9511;54.242;12.448;2023-02-22T13:20:38;101452.34;;;7.91;84.49
18765;BME280;9511;54.242;12.448;2023-02-22T13:23:12;101448.88;;;7.72;84.74
18765;BME280;9511;54.242;12.448;2023-02-22T13:25:47;101448.63;;;7.68;86.02
18765;BME280;9511;54.242;12.448;2023-02-22T13:28:21;101447.97;;;7.72;85.95
18765;BME280;9511;54.242;12.448;2023-02-22T13:31:00;101443.47;;;7.69;85.76
18765;BME280;9511;54.242;12.448;2023-02-22T13:33:42;101444.16;;;7.65;86.01
18765;BME280;9511;54.242;12.448;2023-02-22T13:36:24;101437.97;;;7.65;86.81
18765;BME280;9511;54.242;12.448;2023-02-22T13:42:14;101444.91;;;7.45;87.18
18765;BME280;9511;54.242;12.448;2023-02-22T13:48:03;101441.38;;;7.44;88.21
18765;BME280;9511;54.242;12.448;2023-02-22T13:51:03;101435.22;;;7.44;88.19
18765;BME280;9511;54.242;12.448;2023-02-22T13:53:38;101434.84;;;7.36;88.31
18765;BME280;9511;54.242;12.448;2023-02-22T13:56:09;101431.31;;;7.36;88.29
18765;BME280;9511;54.242;12.448;2023-02-22T13:58:46;101434.84;;;7.18;88.53
18765;BME280;9511;54.242;12.448;2023-02-22T14:01:36;101425.53;;;7.07;89.34
18765;BME280;9511;54.242;12.448;2023-02-22T14:04:35;101428.59;;;6.99;89.59
18765;BME280;9511;54.242;12.448;2023-02-22T14:10:43;101427.97;;;7.04;90.14
18765;BME280;9511;54.242;12.448;2023-02-22T14:13:11;101431.97;;;6.96;90.73
18765;BME280;9511;54.242;12.448;2023-02-22T14:19:00;101430.00;;;6.92;91.59
18765;BME280;9511;54.242;12.448;2023-02-22T14:21:31;101420.16;;;6.88;91.47
18765;BME280;9511;54.242;12.448;2023-02-22T14:24:06;101426.69;;;6.78;91.32
18765;BME280;9511;54.242;12.448;2023-02-22T14:26:38;101416.09;;;6.77;92.13
18765;BME280;9511;54.242;12.448;2023-02-22T14:29:14;101411.06;;;6.81;92.13
18765;BME280;9511;54.242;12.448;2023-02-22T14:32:00;101411.34;;;6.70;92.37
18765;BME280;9511;54.242;12.448;2023-02-22T14:34:46;101406.66;;;6.64;92.56
18765;BME280;9511;54.242;12.448;2023-02-22T14:37:17;101427.00;;;6.50;92.22
18765;BME280;9511;54.242;12.448;2023-02-22T14:39:47;101417.75;;;6.58;92.64
18765;BME280;9511;54.242;12.448;2023-02-22T14:42:21;101423.41;;;6.48;92.65
18765;BME280;9511;54.242;12.448;2023-02-22T14:44:55;101416.16;;;6.44;92.98
18765;BME280;9511;54.242;12.448;2023-02-22T14:47:28;101427.56;;;6.45;93.26
18765;BME280;9511;54.242;12.448;2023-02-22T14:50:03;101430.97;;;6.26;93.41
18765;BME280;9511;54.242;12.448;2023-02-22T14:52:35;101423.75;;;6.22;93.87
18765;BME280;9511;54.242;12.448;2023-02-22T14:55:15;101422.41;;;6.13;93.75
18765;BME280;9511;54.242;12.448;2023-02-22T14:57:54;101424.72;;;6.07;93.77
18765;BME280;9511;54.242;12.448;2023-02-22T15:00:26;101425.47;;;6.05;94.17
18765;BME280;9511;54.242;12.448;2023-02-22T15:02:58;101432.25;;;6.01;94.18
18765;BME280;9511;54.242;12.448;2023-02-22T15:05:27;101416.03;;;5.92;94.46
18765;BME280;9511;54.242;12.448;2023-02-22T15:07:57;101414.97;;;5.90;94.67
18765;BME280;9511;54.242;12.448;2023-02-22T15:10:27;101414.97;;;5.90;95.03
18765;BME280;9511;54.242;12.448;2023-02-22T15:12:59;101423.53;;;5.86;95.47
18765;BME280;9511;54.242;12.448;2023-02-22T15:15:38;101418.03;;;5.81;96.08
18765;BME280;9511;54.242;12.448;2023-02-22T15:18:25;101423.44;;;5.68;96.48
18765;BME280;9511;54.242;12.448;2023-02-22T15:20:57;101419.09;;;5.69;96.75
18765;BME280;9511;54.242;12.448;2023-02-22T15:23:27;101412.81;;;5.67;96.76
18765;BME280;9511;54.242;12.448;2023-02-22T15:25:58;101412.38;;;5.74;96.85
18765;BME280;9511;54.242;12.448;2023-02-22T15:28:28;101405.84;;;5.67;96.93
18765;BME280;9511;54.242;12.448;2023-02-22T15:31:25;101402.25;;;5.65;97.10
18765;BME280;9511;54.242;12.448;2023-02-22T15:33:53;101406.94;;;5.71;97.80
18765;BME280;9511;54.242;12.448;2023-02-22T15:36:24;101407.44;;;5.64;98.15
18765;BME280;9511;54.242;12.448;2023-02-22T15:38:53;101409.88;;;5.60;98.11
18765;BME280;9511;54.242;12.448;2023-02-22T15:41:26;101400.28;;;5.61;98.38
18765;BME280;9511;54.242;12.448;2023-02-22T15:44:04;101405.94;;;5.52;98.55
18765;BME280;9511;54.242;12.448;2023-02-22T15:46:32;101411.00;;;5.49;98.88
18765;BME280;9511;54.242;12.448;2023-02-22T15:49:03;101409.75;;;5.43;99.15
18765;BME280;9511;54.242;12.448;2023-02-22T15:51:31;101416.66;;;5.41;99.41
18765;BME280;9511;54.242;12.448;2023-02-22T15:54:00;101412.59;;;5.31;99.58
18765;BME280;9511;54.242;12.448;2023-02-22T15:56:30;101416.84;;;5.29;99.56
18765;BME280;9511;54.242;12.448;2023-02-22T15:59:08;101418.47;;;5.27;99.62
18765;BME280;9511;54.242;12.448;2023-02-22T16:01:41;101414.34;;;5.16;99.89
18765;BME280;9511;54.242;12.448;2023-02-22T16:04:15;101421.50;;;5.18;100.00
18765;BME280;9511;54.242;12.448;2023-02-22T16:06:44;101418.06;;;5.04;100.00
18765;BME280;9511;54.242;12.448;2023-02-22T16:09:14;101417.06;;;5.02;100.00
18765;BME280;9511;54.242;12.448;2023-02-22T16:11:44;101417.06;;;5.02;100.00
18765;BME280;9511;54.242;12.448;2023-02-22T16:14:29;101413.81;;;5.06;100.00
18765;BME280;9511;54.242;12.448;2023-02-22T16:17:11;101415.19;;;5.00;100.00
18765;BME280;9511;54.242;12.448;2023-02-22T16:19:40;101420.31;;;4.98;100.00
18765;BME280;9511;54.242;12.448;2023-02-22T16:22:24;101418.16;;;4.91;100.00
18765;BME280;9511;54.242;12.448;2023-02-22T16:24:52;101413.94;;;4.93;100.00
18765;BME280;9511;54.242;12.448;2023-02-22T16:27:22;101413.81;;;4.92;100.00
18765;BME280;9511;54.242;12.448;2023-02-22T16:30:04;101424.31;;;4.92;100.00
18765;BME280;9511;54.242;12.448;2023-02-22T16:32:32;101420.44;;;4.85;100.00
18765;BME280;9511;54.242;12.448;2023-02-22T16:35:00;101424.03;;;4.87;100.00
18765;BME280;9511;54.242;12.448;2023-02-22T16:37:27;101415.81;;;4.81;100.00
18765;BME280;9511;54.242;12.448;2023-02-22T16:39:54;101416.00;;;4.84;100.00
18765;BME280;9511;54.242;12.448;2023-02-22T16:42:22;101418.00;;;4.73;100.00
18765;BME280;9511;54.242;12.448;2023-02-22T16:44:51;101428.88;;;4.65;100.00
18765;BME280;9511;54.242;12.448;2023-02-22T16:47:19;101435.63;;;4.61;100.00
18765;BME280;9511;54.242;12.448;2023-02-22T16:49:50;101424.50;;;4.50;100.00
18765;BME280;9511;54.242;12.448;2023-02-22T16:52:19;101424.50;;;4.50;100.00
18765;BME280;9511;54.242;12.448;2023-02-22T16:54:47;101429.56;;;4.47;100.00
18765;BME280;9511;54.242;12.448;2023-02-22T16:57:17;101425.41;;;4.51;100.00
18765;BME280;9511;54.242;12.448;2023-02-22T16:59:45;101426.94;;;4.47;100.00
18765;BME280;9511;54.242;12.448;2023-02-22T17:02:15;101419.72;;;4.43;100.00
18765;BME280;9511;54.242;12.448;2023-02-22T17:04:44;101419.09;;;4.47;100.00
18765;BME280;9511;54.242;12.448;2023-02-22T17:07:16;101420.91;;;4.48;100.00
18765;BME280;9511;54.242;12.448;2023-02-22T17:09:43;101418.91;;;4.44;100.00
18765;BME280;9511;54.242;12.448;2023-02-22T17:12:11;101422.13;;;4.40;100.00
18765;BME280;9511;54.242;12.448;2023-02-22T17:14:38;101420.31;;;4.39;100.00
18765;BME280;9511;54.242;12.448;2023-02-22T17:17:07;101415.81;;;4.37;100.00
18765;BME280;9511;54.242;12.448;2023-02-22T17:19:35;101415.09;;;4.39;100.00
18765;BME280;9511;54.242;12.448;2023-02-22T17:22:03;101415.09;;;4.39;100.00
18765;BME280;9511;54.242;12.448;2023-02-22T17:24:34;101419.50;;;4.40;100.00
18765;BME280;9511;54.242;12.448;2023-02-22T17:27:01;101413.91;;;4.34;100.00
18765;BME280;9511;54.242;12.448;2023-02-22T17:29:29;101419.06;;;4.33;100.00
18765;BME280;9511;54.242;12.448;2023-02-22T17:31:56;101415.63;;;4.34;100.00
18765;BME280;9511;54.242;12.448;2023-02-22T17:34:23;101405.06;;;4.32;100.00
18765;BME280;9511;54.242;12.448;2023-02-22T17:36:50;101406.03;;;4.34;100.00
18765;BME280;9511;54.242;12.448;2023-02-22T17:39:19;101406.69;;;4.30;100.00
18765;BME280;9511;54.242;12.448;2023-02-22T17:41:46;101413.63;;;4.30;100.00
18765;BME280;9511;54.242;12.448;2023-02-22T17:44:19;101412.84;;;4.31;100.00
18765;BME280;9511;54.242;12.448;2023-02-22T17:46:47;101411.13;;;4.31;100.00
18765;BME280;9511;54.242;12.448;2023-02-22T17:49:14;101405.59;;;4.26;100.00
18765;BME280;9511;54.242;12.448;2023-02-22T17:51:42;101417.25;;;4.32;100.00
18765;BME280;9511;54.242;12.448;2023-02-22T17:54:14;101421.59;;;4.31;100.00
18765;BME280;9511;54.242;12.448;2023-02-22T17:56:43;101417.25;;;4.32;100.00
18765;BME280;9511;54.242;12.448;2023-02-22T17:59:11;101412.03;;;4.32;100.00
18765;BME280;9511;54.242;12.448;2023-02-22T18:01:38;101410.09;;;4.29;100.00
18765;BME280;9511;54.242;12.448;2023-02-22T18:04:05;101418.06;;;4.31;100.00
18765;BME280;9511;54.242;12.448;2023-02-22T18:06:32;101421.38;;;4.28;100.00
18765;BME280;9511;54.242;12.448;2023-02-22T18:09:00;101411.75;;;4.27;100.00
18765;BME280;9511;54.242;12.448;2023-02-22T18:11:36;101419.59;;;4.27;100.00
18765;BME280;9511;54.242;12.448;2023-02-22T18:14:05;101414.72;;;4.33;100.00
18765;BME280;9511;54.242;12.448;2023-02-22T18:16:34;101417.06;;;4.29;100.00
18765;BME280;9511;54.242;12.448;2023-02-22T18:19:04;101405.88;;;4.31;100.00
18765;BME280;9511;54.242;12.448;2023-02-22T18:21:31;101408.38;;;4.30;100.00
18765;BME280;9511;54.242;12.448;2023-02-22T18:23:59;101410.31;;;4.32;100.00
18765;BME280;9511;54.242;12.448;2023-02-22T18:26:26;101407.75;;;4.34;100.00
18765;BME280;9511;54.242;12.448;2023-02-22T18:28:53;101411.28;;;4.34;100.00
18765;BME280;9511;54.242;12.448;2023-02-22T18:31:22;101406.03;;;4.34;100.00
18765;BME280;9511;54.242;12.448;2023-02-22T18:33:50;101409.69;;;4.36;100.00
18765;BME280;9511;54.242;12.448;2023-02-22T18:36:19;101408.06;;;4.38;100.00
18765;BME280;9511;54.242;12.448;2023-02-22T18:38:48;101409.69;;;4.36;100.00
18765;BME280;9511;54.242;12.448;2023-02-22T18:41:17;101403.72;;;4.39;100.00
18765;BME280;9511;54.242;12.448;2023-02-22T18:43:45;101392.34;;;4.38;100.00
18765;BME280;9511;54.242;12.448;2023-02-22T18:46:14;101400.28;;;4.40;100.00
18765;BME280;9511;54.242;12.448;2023-02-22T18:48:44;101393.53;;;4.43;100.00
18765;BME280;9511;54.242;12.448;2023-02-22T18:51:14;101390.91;;;4.43;100.00
18765;BME280;9511;54.242;12.448;2023-02-22T18:53:42;101397.31;;;4.48;100.00
18765;BME280;9511;54.242;12.448;2023-02-22T18:56:13;101388.44;;;4.46;100.00
18765;BME280;9511;54.242;12.448;2023-02-22T18:58:41;101393.88;;;4.49;100.00
18765;BME280;9511;54.242;12.448;2023-02-22T19:01:13;101387.00;;;4.51;100.00
18765;BME280;9511;54.242;12.448;2023-02-22T19:03:41;101379.34;;;4.55;100.00
18765;BME280;9511;54.242;12.448;2023-02-22T19:06:10;101384.75;;;4.58;100.00
18765;BME280;9511;54.242;12.448;2023-02-22T19:08:37;101387.63;;;4.62;100.00
18765;BME280;9511;54.242;12.448;2023-02-22T19:11:06;101376.06;;;4.59;100.00
18765;BME280;9511;54.242;12.448;2023-02-22T19:13:35;101376.47;;;4.65;100.00
18765;BME280;9511;54.242;12.448;2023-02-22T19:16:03;101363.91;;;4.59;100.00
18765;BME280;9511;54.242;12.448;2023-02-22T19:18:32;101367.56;;;4.63;100.00
18765;BME280;9511;54.242;12.448;2023-02-22T19:21:01;101371.22;;;4.65;100.00
18765;BME280;9511;54.242;12.448;2023-02-22T19:23:30;101372.81;;;4.63;100.00
18765;BME280;9511;54.242;12.448;2023-02-22T19:25:58;101367.66;;;4.64;100.00
18765;BME280;9511;54.242;12.448;2023-02-22T19:28:25;101360.91;;;4.68;100.00
18765;BME280;9511;54.242;12.448;2023-02-22T19:31:09;101357.09;;;4.63;100.00
18765;BME280;9511;54.242;12.448;2023-02-22T19:33:37;101352.88;;;4.65;100.00
18765;BME280;9511;54.242;12.448;2023-02-22T19:36:05;101362.69;;;4.69;100.00
18765;BME280;9511;54.242;12.448;2023-02-22T19:38:33;101348.78;;;4.70;100.00
18765;BME280;9511;54.242;12.448;2023-02-22T19:41:05;101351.22;;;4.67;100.00
18765;BME280;9511;54.242;12.448;2023-02-22T19:43:34;101349.69;;;4.70;100.00
18765;BME280;9511;54.242;12.448;2023-02-22T19:46:03;101344.19;;;4.66;100.00
18765;BME280;9511;54.242;12.448;2023-02-22T19:48:30;101344.91;;;4.63;100.00
18765;BME280;9511;54.242;12.448;2023-02-22T19:51:01;101337.78;;;4.61;100.00
18765;BME280;9511;54.242;12.448;2023-02-22T19:53:29;101333.97;;;4.56;100.00
18765;BME280;9511;54.242;12.448;2023-02-22T19:55:57;101334.97;;;4.58;100.00
18765;BME280;9511;54.242;12.448;2023-02-22T19:58:25;101334.59;;;4.51;100.00
18765;BME280;9511;54.242;12.448;2023-02-22T20:00:52;101335.25;;;4.47;100.00
18765;BME280;9511;54.242;12.448;2023-02-22T20:03:20;101333.34;;;4.45;100.00
18765;BME280;9511;54.242;12.448;2023-02-22T20:05:55;101335.97;;;4.45;100.00
18765;BME280;9511;54.242;12.448;2023-02-22T20:08:23;101334.16;;;4.44;100.00
18765;BME280;9511;54.242;12.448;2023-02-22T20:10:57;101328.09;;;4.45;100.00
18765;BME280;9511;54.242;12.448;2023-02-22T20:13:24;101340.13;;;4.41;100.00
18765;BME280;9511;54.242;12.448;2023-02-22T20:15:52;101341.84;;;4.41;100.00
18765;BME280;9511;54.242;12.448;2023-02-22T20:18:20;101339.59;;;4.32;100.00
18765;BME280;9511;54.242;12.448;2023-02-22T20:20:48;101337.78;;;4.31;100.00
18765;BME280;9511;54.242;12.448;2023-02-22T20:23:16;101337.78;;;4.31;100.00
18765;BME280;9511;54.242;12.448;2023-02-22T20:25:50;101349.50;;;4.23;100.00
18765;BME280;9511;54.242;12.448;2023-02-22T20:28:19;101349.34;;;4.20;100.00
18765;BME280;9511;54.242;12.448;2023-02-22T20:30:47;101352.66;;;4.17;100.00
18765;BME280;9511;54.242;12.448;2023-02-22T20:33:18;101353.41;;;4.15;100.00
18765;BME280;9511;54.242;12.448;2023-02-22T20:35:45;101347.69;;;4.22;100.00
18765;BME280;9511;54.242;12.448;2023-02-22T20:38:13;101350.31;;;4.22;100.00
18765;BME280;9511;54.242;12.448;2023-02-22T20:40:41;101350.94;;;4.18;100.00
18765;BME280;9511;54.242;12.448;2023-02-22T20:43:08;101349.69;;;4.11;100.00
18765;BME280;9511;54.242;12.448;2023-02-22T20:45:37;101354.22;;;4.14;100.00
18765;BME280;9511;54.242;12.448;2023-02-22T20:48:05;101347.34;;;4.16;100.00
18765;BME280;9511;54.242;12.448;2023-02-22T20:50:33;101352.50;;;4.14;100.00
18765;BME280;9511;54.242;12.448;2023-02-22T20:53:01;101348.59;;;4.08;100.00
18765;BME280;9511;54.242;12.448;2023-02-22T20:55:28;101354.53;;;4.05;100.00